Time;durP1;ratioP1;P1;durP2;ratioP2;P2;SDS_P1;SDS_P2;PMS_P1;PMS_P2;Temp;Humidity;BMP_temperature;BMP_pressure;BME280_temperature;BME280_humidity;BME280_pressure;Samples;Min_cycle;Max_cycle;Signal;HPM_P1;HPM_P2
2021/12/26 00:02:23;;;;;;;17.20;7.07;;;;;;;-0.27;100.00;97157.25;5078053;28;20049;-55
2021/12/26 00:04:49;;;;;;;13.43;6.38;;;;;;;-0.50;100.00;97152.38;5081475;28;20671;-55
2021/12/26 00:07:17;;;;;;;15.85;7.90;;;;;;;-0.54;100.00;97150.72;5079512;28;20805;-55
2021/12/26 00:09:43;;;;;;;16.73;7.53;;;;;;;-0.46;100.00;97154.03;5079769;28;20666;-56
2021/12/26 00:12:09;;;;;;;17.10;7.93;;;;;;;-0.44;100.00;97152.28;5078291;28;20037;-55
2021/12/26 00:14:34;;;;;;;15.68;7.80;;;;;;;-0.51;100.00;97151.53;5076581;28;20397;-55
2021/12/26 00:16:59;;;;;;;17.58;7.47;;;;;;;-0.44;100.00;97157.41;5078173;27;20118;-56
2021/12/26 00:19:25;;;;;;;14.75;6.43;;;;;;;-0.36;100.00;97149.69;5078237;28;20119;-56
2021/12/26 00:21:50;;;;;;;17.98;6.20;;;;;;;-0.56;100.00;97152.44;5077446;28;20636;-58
2021/12/26 00:24:15;;;;;;;20.38;7.40;;;;;;;-0.43;100.00;97144.59;5097201;27;20025;-56
2021/12/26 00:26:41;;;;;;;15.50;6.70;;;;;;;-0.43;100.00;97144.59;5081809;28;20135;-56
2021/12/26 00:29:06;;;;;;;16.92;7.07;;;;;;;-0.41;100.00;97142.03;5077737;28;20028;-56
2021/12/26 00:31:32;;;;;;;15.95;7.03;;;;;;;-0.32;100.00;97151.31;5079393;28;20406;-57
2021/12/26 00:33:57;;;;;;;17.48;6.82;;;;;;;-0.20;100.00;97152.03;5081717;28;20016;-58
2021/12/26 00:36:22;;;;;;;17.63;7.28;;;;;;;-0.35;100.00;97149.66;5078963;28;20029;-59
2021/12/26 00:38:48;;;;;;;17.05;8.00;;;;;;;-0.48;100.00;97146.38;5080674;28;20475;-58
2021/12/26 00:41:13;;;;;;;18.00;8.57;;;;;;;-0.32;100.00;97141.91;5079136;28;20249;-58
2021/12/26 00:43:39;;;;;;;20.75;9.48;;;;;;;-0.33;100.00;97149.63;5077512;28;20028;-57
2021/12/26 00:46:04;;;;;;;15.40;6.70;;;;;;;-0.44;100.00;97145.47;5077925;28;20086;-57
2021/12/26 00:48:30;;;;;;;17.17;7.85;;;;;;;-0.55;100.00;97149.88;5081184;28;20583;-57
2021/12/26 00:50:55;;;;;;;17.58;7.15;;;;;;;-0.22;100.00;97147.78;5080331;28;20581;-57
2021/12/26 00:53:22;;;;;;;16.45;7.07;;;;;;;-0.10;100.00;97151.94;5077346;28;20542;-57
2021/12/26 00:55:48;;;;;;;16.83;8.90;;;;;;;-0.42;100.00;97156.56;5078543;28;20024;-55
2021/12/26 00:58:13;;;;;;;16.63;7.38;;;;;;;-0.32;100.00;97157.28;5078976;28;20028;-58
2021/12/26 01:00:42;;;;;;;16.75;6.97;;;;;;;-0.25;100.00;97158.91;5081116;28;20028;-57
2021/12/26 01:03:09;;;;;;;18.52;6.10;;;;;;;-0.33;100.00;97155.63;5075774;28;20031;-59
2021/12/26 01:05:36;;;;;;;15.43;6.63;;;;;;;-0.43;100.00;97162.53;5075628;28;20065;-57
2021/12/26 01:08:04;;;;;;;14.20;6.93;;;;;;;-0.01;100.00;97172.31;5079654;28;20031;-56
2021/12/26 01:10:38;;;;;;;18.40;8.18;;;;;;;-0.34;100.00;97169.28;5081369;28;20042;-58
2021/12/26 01:13:17;;;;;;;15.68;6.88;;;;;;;-0.31;100.00;97169.25;5078520;28;20703;-56
2021/12/26 01:15:44;;;;;;;16.02;7.07;;;;;;;-0.20;100.00;97171.69;5079173;28;20032;-57
2021/12/26 01:18:11;;;;;;;15.60;7.05;;;;;;;-0.59;100.00;97171.22;5075861;28;20032;-55
2021/12/26 01:20:43;;;;;;;17.60;7.53;;;;;;;-0.61;100.00;97176.41;5081791;28;20500;-56
2021/12/26 01:23:10;;;;;;;16.77;7.05;;;;;;;-0.45;100.00;97171.09;5084184;28;20090;-56
2021/12/26 01:25:35;;;;;;;18.75;7.75;;;;;;;-0.23;100.00;97177.69;5082774;28;20039;-56
2021/12/26 01:28:01;;;;;;;19.33;8.15;;;;;;;-0.43;100.00;97171.94;5077469;28;20047;-57
2021/12/26 01:30:27;;;;;;;16.35;7.65;;;;;;;-0.56;100.00;97173.78;5086445;28;20035;-57
2021/12/26 01:32:52;;;;;;;16.48;7.47;;;;;;;-0.63;100.00;97180.66;5078326;28;20024;-56
2021/12/26 01:35:17;;;;;;;17.70;7.43;;;;;;;-0.64;100.00;97176.41;5084998;28;20039;-57
2021/12/26 01:37:43;;;;;;;19.20;8.05;;;;;;;-0.65;100.00;97179.84;5083365;28;20101;-56
2021/12/26 01:40:09;;;;;;;14.90;6.88;;;;;;;-0.65;100.00;97184.97;5081232;28;20438;-57
2021/12/26 01:42:34;;;;;;;17.45;7.60;;;;;;;-0.40;100.00;97177.03;5080231;28;20031;-55
2021/12/26 01:45:00;;;;;;;19.33;8.02;;;;;;;-0.69;100.00;97183.28;5079753;28;20081;-57
2021/12/26 01:47:26;;;;;;;21.33;9.25;;;;;;;-0.77;100.00;97174.84;5079130;28;20028;-58
2021/12/26 01:49:52;;;;;;;19.85;8.25;;;;;;;-0.68;100.00;97173.88;5078796;28;20073;-56
2021/12/26 01:52:17;;;;;;;16.83;6.82;;;;;;;-0.70;100.00;97176.50;5086825;28;20035;-56
2021/12/26 01:54:46;;;;;;;16.33;7.22;;;;;;;-0.56;100.00;97184.03;5079454;28;20019;-58
2021/12/26 01:57:15;;;;;;;19.00;8.63;;;;;;;-0.60;100.00;97182.38;5086970;28;20096;-55
2021/12/26 01:59:41;;;;;;;17.75;7.55;;;;;;;-0.69;100.00;97183.28;5082294;28;20024;-55
2021/12/26 02:02:08;;;;;;;20.35;8.27;;;;;;;-0.47;100.00;97190.78;5086557;28;20036;-56
2021/12/26 02:04:37;;;;;;;20.73;8.38;;;;;;;-0.58;100.00;97198.56;5083399;28;20031;-56
2021/12/26 02:07:04;;;;;;;18.95;7.97;;;;;;;-0.70;100.00;97196.97;5099984;27;20037;-58
2021/12/26 02:09:30;;;;;;;23.27;10.73;;;;;;;-0.86;100.00;97185.16;5081077;28;20025;-56
2021/12/26 02:11:57;;;;;;;20.52;8.82;;;;;;;-0.73;100.00;97176.50;5076935;28;20028;-56
2021/12/26 02:14:22;;;;;;;21.27;10.85;;;;;;;-0.76;100.00;97181.66;5081458;28;20720;-56
2021/12/26 02:16:48;;;;;;;18.52;6.88;;;;;;;-0.82;100.00;97176.59;5078951;28;20110;-56
2021/12/26 02:19:13;;;;;;;19.65;7.78;;;;;;;-0.85;100.00;97179.19;5076660;28;20492;-56
2021/12/26 02:22:04;;;;;;;19.40;8.23;;;;;;;-0.98;100.00;97179.25;5082676;28;20132;-55
2021/12/26 02:25:07;;;;;;;24.95;9.88;;;;;;;-0.69;100.00;97185.00;5080369;28;20032;-55
2021/12/26 02:27:31;;;;;;;23.55;9.77;;;;;;;-0.70;100.00;97185.88;5084233;28;20123;-57
2021/12/26 02:30:01;;;;;;;21.38;9.50;;;;;;;-0.65;100.00;97187.50;5079726;28;20033;-56
2021/12/26 02:32:27;;;;;;;22.30;10.18;;;;;;;-0.80;100.00;97172.31;5081524;28;20034;-56
2021/12/26 02:34:52;;;;;;;16.83;8.15;;;;;;;-0.65;100.00;97169.59;5085006;28;20032;-56
2021/12/26 02:37:17;;;;;;;22.45;10.40;;;;;;;-0.79;100.00;97171.44;5079592;28;20039;-55
2021/12/26 02:39:43;;;;;;;22.38;10.23;;;;;;;-0.92;100.00;97169.84;5081538;28;20115;-58
2021/12/26 02:42:08;;;;;;;17.73;7.30;;;;;;;-0.73;100.00;97171.38;5081839;28;20074;-56
2021/12/26 02:44:34;;;;;;;24.02;10.13;;;;;;;-0.79;100.00;97179.97;5080730;28;20034;-56
2021/12/26 02:46:59;;;;;;;23.15;10.50;;;;;;;-0.87;100.00;97168.09;5082507;28;20607;-57
2021/12/26 02:49:25;;;;;;;20.25;9.75;;;;;;;-0.82;100.00;97161.22;5078654;28;20032;-56
2021/12/26 02:51:52;;;;;;;23.63;9.85;;;;;;;-0.93;100.00;97163.88;5078059;28;20046;-56
2021/12/26 02:54:18;;;;;;;21.00;9.00;;;;;;;-0.66;100.00;97169.59;5079583;28;20027;-56
2021/12/26 02:56:44;;;;;;;17.17;7.03;;;;;;;-0.80;100.00;97164.63;5083590;28;20059;-57
2021/12/26 02:59:09;;;;;;;19.10;8.43;;;;;;;-0.55;100.00;97160.13;5081267;28;20483;-57
2021/12/26 03:01:35;;;;;;;23.17;9.30;;;;;;;-0.70;100.00;97165.38;5082419;28;20037;-58
2021/12/26 03:04:04;;;;;;;20.70;7.97;;;;;;;-0.70;100.00;97165.38;5080922;28;20024;-55
2021/12/26 03:06:37;;;;;;;18.27;7.57;;;;;;;-0.70;100.00;97163.69;5077465;28;20554;-56
2021/12/26 03:09:04;;;;;;;21.33;7.82;;;;;;;-0.73;100.00;97166.25;5078469;28;20035;-55
2021/12/26 03:11:30;;;;;;;18.15;7.55;;;;;;;-0.81;100.00;97165.47;5080040;28;20124;-57
2021/12/26 03:13:56;;;;;;;22.48;9.05;;;;;;;-0.65;100.00;97159.34;5075116;28;20031;-56
2021/12/26 03:16:21;;;;;;;20.00;8.68;;;;;;;-0.62;100.00;97158.47;5080174;28;20043;-56
2021/12/26 03:18:46;;;;;;;21.02;8.30;;;;;;;-0.57;100.00;97166.94;5080109;28;20034;-56
2021/12/26 03:21:12;;;;;;;19.83;7.95;;;;;;;-0.47;100.00;97163.44;5078659;28;20063;-56
2021/12/26 03:23:37;;;;;;;19.25;8.88;;;;;;;-0.45;100.00;97171.09;5080029;28;20572;-57
2021/12/26 03:26:05;;;;;;;20.45;8.75;;;;;;;-0.57;100.00;97173.78;5083942;28;20044;-58
2021/12/26 03:28:30;;;;;;;19.27;7.95;;;;;;;-0.47;100.00;97168.56;5080963;28;20028;-56
2021/12/26 03:30:58;;;;;;;21.95;9.48;;;;;;;-0.53;100.00;97170.31;5078437;28;20699;-56
2021/12/26 03:33:25;;;;;;;22.88;8.73;;;;;;;-0.37;100.00;97163.34;5077514;28;20103;-56
2021/12/26 03:35:51;;;;;;;22.38;9.77;;;;;;;-0.55;100.00;97156.69;5079841;28;20028;-56
2021/12/26 03:38:18;;;;;;;21.88;9.02;;;;;;;-0.65;100.00;97166.19;5097811;27;20070;-56
2021/12/26 03:40:45;;;;;;;17.92;8.00;;;;;;;-0.54;100.00;97168.66;5081386;28;20823;-57
2021/12/26 03:43:11;;;;;;;20.30;8.50;;;;;;;-0.59;100.00;97159.31;5076183;28;20052;-56
2021/12/26 03:45:41;;;;;;;18.05;7.00;;;;;;;-0.63;100.00;97149.94;5082418;28;20335;-57
2021/12/26 03:48:06;;;;;;;15.80;7.05;;;;;;;-0.55;100.00;97149.88;5079152;28;20020;-56
2021/12/26 03:50:33;;;;;;;19.75;8.98;;;;;;;-0.45;100.00;97154.00;5078202;27;20037;-56
2021/12/26 03:53:01;;;;;;;18.15;7.60;;;;;;;-0.51;100.00;97150.69;5081101;28;20887;-57
2021/12/26 03:55:27;;;;;;;18.58;8.45;;;;;;;-0.41;100.00;97147.16;5097517;27;20502;-58
2021/12/26 03:57:54;;;;;;;18.88;7.20;;;;;;;-0.56;100.00;97145.59;5079392;28;20586;-57
2021/12/26 04:00:21;;;;;;;19.05;7.30;;;;;;;-0.51;100.00;97145.56;5076111;28;20024;-58
2021/12/26 04:02:46;;;;;;;19.70;7.57;;;;;;;-0.46;100.00;97148.91;5079841;28;20103;-56
2021/12/26 04:05:13;;;;;;;15.43;6.78;;;;;;;-0.32;100.00;97149.59;5081318;28;20034;-56
2021/12/26 04:07:40;;;;;;;20.42;8.45;;;;;;;-0.59;100.00;97146.50;5082655;28;20028;-55
2021/12/26 04:10:06;;;;;;;20.15;8.57;;;;;;;-0.44;100.00;97137.78;5098047;27;20039;-55
2021/12/26 04:12:36;;;;;;;19.98;8.00;;;;;;;-0.23;100.00;97143.53;5077225;28;20040;-55
2021/12/26 04:15:08;;;;;;;17.40;7.68;;;;;;;-0.21;100.00;97145.19;5079378;28;20853;-55
2021/12/26 04:17:34;;;;;;;18.48;7.90;;;;;;;-0.29;100.00;97152.13;5074906;28;20486;-55
2021/12/26 04:20:00;;;;;;;18.50;8.48;;;;;;;-0.33;100.00;97149.63;5067869;28;20031;-58
2021/12/26 04:22:25;;;;;;;16.90;7.43;;;;;;;-0.22;100.00;97153.78;5080910;28;20422;-55
2021/12/26 04:24:51;;;;;;;19.38;8.07;;;;;;;-0.23;100.00;97146.94;5081885;28;20076;-56
2021/12/26 04:27:16;;;;;;;17.77;7.97;;;;;;;-0.22;100.00;97151.22;5078081;28;20189;-56
2021/12/26 04:29:41;;;;;;;22.13;8.60;;;;;;;0.16;100.00;97157.56;5067096;28;20898;-56
2021/12/26 04:32:07;;;;;;;19.40;8.05;;;;;;;-0.11;100.00;97151.09;5077481;28;20868;-56
2021/12/26 04:34:32;;;;;;;16.15;7.63;;;;;;;-0.21;100.00;97155.44;5077234;28;20665;-55
2021/12/26 04:36:58;;;;;;;18.25;7.43;;;;;;;-0.03;100.00;97145.84;5078361;28;20036;-56
2021/12/26 04:39:23;;;;;;;18.25;8.30;;;;;;;-0.05;100.00;97152.72;5075162;28;20055;-56
2021/12/26 04:41:49;;;;;;;21.08;9.75;;;;;;;-0.14;100.00;97151.09;5078541;28;20035;-56
2021/12/26 04:44:14;;;;;;;15.48;7.07;;;;;;;-0.16;100.00;97162.25;5067466;28;20023;-56
2021/12/26 04:46:39;;;;;;;20.38;8.27;;;;;;;-0.04;100.00;97155.28;5077056;28;20030;-56
2021/12/26 04:49:05;;;;;;;17.15;8.20;;;;;;;0.00;100.00;97153.50;5078899;28;20500;-56
2021/12/26 04:51:30;;;;;;;17.38;7.93;;;;;;;0.13;100.00;97155.06;5073868;28;20045;-56
2021/12/26 04:53:56;;;;;;;20.65;8.50;;;;;;;-0.08;100.00;97158.72;5074941;28;20032;-57
2021/12/26 04:56:21;;;;;;;20.25;8.50;;;;;;;0.05;100.00;97161.13;5076006;28;20028;-56
2021/12/26 04:58:47;;;;;;;20.25;8.57;;;;;;;-0.27;100.00;97154.69;5080066;28;20032;-56
2021/12/26 05:01:12;;;;;;;20.25;8.10;;;;;;;-0.24;100.00;97162.31;5078011;28;20136;-57
2021/12/26 05:03:40;;;;;;;19.90;7.72;;;;;;;-0.09;100.00;97168.97;5051072;28;20020;-57
2021/12/26 05:06:05;;;;;;;17.63;7.97;;;;;;;-0.09;100.00;97168.97;5079963;28;20046;-56
2021/12/26 05:08:31;;;;;;;20.75;9.02;;;;;;;-0.09;100.00;97163.84;5075000;28;20417;-56
2021/12/26 05:10:56;;;;;;;20.48;8.50;;;;;;;-0.02;100.00;97165.47;5079226;28;20428;-56
2021/12/26 05:13:22;;;;;;;17.35;7.80;;;;;;;-0.15;100.00;97177.59;5079070;28;20028;-56
2021/12/26 05:15:48;;;;;;;22.13;9.45;;;;;;;-0.18;100.00;97179.34;5081297;28;20123;-56
2021/12/26 05:18:13;;;;;;;20.13;8.15;;;;;;;-0.10;100.00;97178.41;5074242;28;20040;-56
2021/12/26 05:20:39;;;;;;;20.65;8.48;;;;;;;0.12;100.00;97178.97;5059412;28;20961;-56
2021/12/26 05:23:04;;;;;;;22.98;9.15;;;;;;;0.12;100.00;97173.84;5079274;28;20059;-56
2021/12/26 05:25:30;;;;;;;20.42;8.40;;;;;;;0.17;100.00;97179.78;5081176;28;20036;-58
2021/12/26 05:27:55;;;;;;;18.63;8.38;;;;;;;0.14;100.00;97184.94;5075957;28;20028;-58
2021/12/26 05:30:24;;;;;;;19.67;8.95;;;;;;;0.17;100.00;97177.22;5078201;28;20039;-56
2021/12/26 05:32:49;;;;;;;22.65;9.77;;;;;;;0.13;100.00;97175.56;5080677;28;20561;-56
2021/12/26 05:35:16;;;;;;;19.88;8.63;;;;;;;0.27;100.00;97183.06;5079994;28;20039;-57
2021/12/26 05:37:43;;;;;;;19.48;8.48;;;;;;;0.24;100.00;97180.56;5079817;28;20023;-56
2021/12/26 05:40:10;;;;;;;19.15;8.70;;;;;;;0.00;100.00;97179.16;5075829;28;20035;-57
2021/12/26 05:42:38;;;;;;;22.08;9.48;;;;;;;0.09;100.00;97173.91;5077770;28;20036;-56
2021/12/26 05:45:05;;;;;;;23.58;10.23;;;;;;;0.17;100.00;97169.53;5072538;28;20028;-58
2021/12/26 05:47:31;;;;;;;21.52;8.52;;;;;;;-0.05;100.00;97176.63;5076646;28;20040;-56
2021/12/26 05:49:57;;;;;;;24.55;9.88;;;;;;;0.04;100.00;97170.56;5095915;28;20096;-57
2021/12/26 05:52:22;;;;;;;26.10;12.07;;;;;;;-0.05;100.00;97170.66;5077103;28;20118;-58
2021/12/26 05:54:49;;;;;;;23.92;10.65;;;;;;;-0.06;100.00;97171.53;5073450;28;20032;-57
2021/12/26 05:57:15;;;;;;;21.15;9.50;;;;;;;-0.15;100.00;97169.06;5076950;28;20043;-55
2021/12/26 05:59:41;;;;;;;20.88;9.00;;;;;;;-0.20;100.00;97166.56;5074810;28;20028;-56
2021/12/26 06:02:06;;;;;;;22.38;9.30;;;;;;;-0.05;100.00;97181.75;5076076;28;20032;-56
2021/12/26 06:04:31;;;;;;;24.27;9.77;;;;;;;0.08;100.00;97179.91;5083315;28;20584;-58
2021/12/26 06:06:58;;;;;;;25.02;11.02;;;;;;;-0.06;100.00;97174.09;5073425;28;20033;-56
2021/12/26 06:09:23;;;;;;;21.70;9.18;;;;;;;-0.03;100.00;97171.50;5075935;28;20523;-56
2021/12/26 06:11:49;;;;;;;25.08;11.02;;;;;;;-0.10;100.00;97172.44;5078057;28;20123;-57
2021/12/26 06:14:14;;;;;;;24.70;11.10;;;;;;;-0.24;100.00;97170.88;5081115;28;20035;-57
2021/12/26 06:16:40;;;;;;;23.60;10.90;;;;;;;-0.06;100.00;97174.09;5076643;28;20470;-56
2021/12/26 06:19:05;;;;;;;29.15;11.55;;;;;;;-0.21;100.00;97169.97;5081936;28;21013;-56
2021/12/26 06:21:31;;;;;;;27.45;10.48;;;;;;;-0.06;100.00;97164.66;5083232;27;20050;-56
2021/12/26 06:23:56;;;;;;;23.77;10.40;;;;;;;-0.18;100.00;97159.72;5086013;28;20034;-56
2021/12/26 06:26:24;;;;;;;26.00;11.30;;;;;;;-0.26;100.00;97167.50;5077906;28;20051;-56
2021/12/26 06:28:50;;;;;;;23.10;10.00;;;;;;;-0.18;100.00;97153.72;5085176;28;20552;-56
2021/12/26 06:31:17;;;;;;;22.80;9.27;;;;;;;-0.22;100.00;97164.03;5077250;28;20039;-56
2021/12/26 06:33:43;;;;;;;26.95;12.88;;;;;;;-0.17;100.00;97163.94;5080629;28;20023;-56
2021/12/26 06:36:09;;;;;;;24.88;10.75;;;;;;;-0.13;100.00;97157.94;5080337;28;20028;-56
2021/12/26 06:38:36;;;;;;;21.40;9.48;;;;;;;-0.04;100.00;97155.28;5077194;28;20023;-57
2021/12/26 06:41:03;;;;;;;26.67;12.90;;;;;;;-0.13;100.00;97146.81;5078779;28;20227;-57
2021/12/26 06:43:28;;;;;;;26.88;11.57;;;;;;;-0.05;100.00;97145.03;5081830;28;20020;-57
2021/12/26 06:45:54;;;;;;;28.75;12.55;;;;;;;-0.09;100.00;97148.47;5077928;28;20047;-57
2021/12/26 06:48:20;;;;;;;25.83;11.30;;;;;;;-0.04;100.00;97151.84;5101669;27;20451;-56
2021/12/26 06:50:47;;;;;;;26.15;11.00;;;;;;;0.16;100.00;97149.84;5082864;28;20047;-57
2021/12/26 06:53:12;;;;;;;25.48;10.70;;;;;;;0.44;100.00;97154.63;5081760;28;20106;-56
2021/12/26 06:55:38;;;;;;;22.27;9.57;;;;;;;0.52;100.00;97163.06;5079288;28;20042;-56
2021/12/26 06:58:04;;;;;;;22.33;10.27;;;;;;;0.27;100.00;97161.72;5077131;27;20087;-56
2021/12/26 07:00:30;;;;;;;20.45;9.43;;;;;;;0.43;100.00;97160.63;5080487;28;20059;-56
2021/12/26 07:02:56;;;;;;;22.33;10.60;;;;;;;0.42;100.00;97161.47;5078744;28;20490;-56
2021/12/26 07:05:22;;;;;;;27.25;11.90;;;;;;;0.23;100.00;97163.47;5083414;28;20039;-56
2021/12/26 07:07:47;;;;;;;23.63;10.48;;;;;;;0.49;100.00;97163.09;5082218;28;20036;-58
2021/12/26 07:10:13;;;;;;;20.30;9.40;;;;;;;0.53;100.00;97169.91;5086254;28;20052;-56
2021/12/26 07:12:39;;;;;;;24.00;10.68;;;;;;;0.59;100.00;97174.09;5080703;28;20449;-57
2021/12/26 07:15:05;;;;;;;24.48;10.88;;;;;;;0.57;100.00;97179.25;5079304;28;20027;-58
2021/12/26 07:17:30;;;;;;;23.08;10.68;;;;;;;0.67;100.00;97181.66;5082045;28;20024;-57
2021/12/26 07:19:55;;;;;;;24.33;10.05;;;;;;;0.50;100.00;97185.34;5084255;28;20016;-56
2021/12/26 07:22:21;;;;;;;25.95;10.32;;;;;;;0.76;100.00;97181.53;5079512;28;20079;-57
2021/12/26 07:24:47;;;;;;;22.48;10.43;;;;;;;0.75;100.00;97190.97;5083621;28;20077;-56
2021/12/26 07:27:16;;;;;;;23.77;10.10;;;;;;;0.60;100.00;97196.31;5078267;28;20431;-57
2021/12/26 07:29:42;;;;;;;24.35;10.15;;;;;;;0.84;100.00;97195.09;5074930;28;20207;-57
2021/12/26 07:32:08;;;;;;;24.20;9.90;;;;;;;0.77;100.00;97203.75;5081365;28;20410;-55
2021/12/26 07:34:34;;;;;;;21.52;10.18;;;;;;;0.80;100.00;97201.16;5081037;28;20500;-55
2021/12/26 07:37:01;;;;;;;24.00;10.50;;;;;;;0.67;100.00;97197.91;5085363;28;20032;-55
2021/12/26 07:39:27;;;;;;;23.88;10.32;;;;;;;0.62;100.00;97193.72;5076186;28;20533;-57
2021/12/26 07:41:52;;;;;;;25.70;11.35;;;;;;;0.47;100.00;97193.06;5080773;28;20684;-55
2021/12/26 07:44:17;;;;;;;25.05;10.60;;;;;;;0.67;100.00;97194.50;5086340;28;20068;-55
2021/12/26 07:46:43;;;;;;;27.48;11.13;;;;;;;0.70;100.00;97189.31;5080620;28;20044;-55
2021/12/26 07:49:09;;;;;;;26.15;11.73;;;;;;;0.51;100.00;97191.31;5076205;28;20036;-55
2021/12/26 07:51:34;;;;;;;29.33;12.43;;;;;;;0.53;100.00;97190.44;5078716;28;20702;-55
2021/12/26 07:54:01;;;;;;;27.10;12.48;;;;;;;0.39;100.00;97197.47;5079576;28;20038;-56
2021/12/26 07:56:28;;;;;;;28.75;13.50;;;;;;;0.36;100.00;97198.34;5077495;28;20115;-55
2021/12/26 07:58:53;;;;;;;29.98;14.32;;;;;;;0.35;100.00;97195.78;5096790;27;20164;-55
2021/12/26 08:01:19;;;;;;;24.45;10.43;;;;;;;0.60;100.00;97213.44;5076466;28;20054;-58
2021/12/26 08:03:45;;;;;;;27.17;11.32;;;;;;;0.89;100.00;97221.53;5085257;28;20028;-56
2021/12/26 08:06:16;;;;;;;25.65;11.27;;;;;;;1.12;100.00;97221.22;5085645;28;20036;-56
2021/12/26 08:08:42;;;;;;;24.55;10.52;;;;;;;0.86;100.00;97224.16;5077977;28;20027;-56
2021/12/26 08:11:09;;;;;;;27.10;12.10;;;;;;;0.96;100.00;97220.59;5074220;28;20032;-56
2021/12/26 08:13:34;;;;;;;24.33;11.52;;;;;;;0.73;100.00;97218.34;5078088;28;20040;-55
2021/12/26 08:16:00;;;;;;;25.38;11.80;;;;;;;0.45;100.00;97207.63;5078928;27;20697;-56
2021/12/26 08:18:25;;;;;;;21.42;9.95;;;;;;;0.19;100.00;97210.53;5076386;28;20036;-57
2021/12/26 08:20:50;;;;;;;25.77;11.63;;;;;;;0.38;100.00;97222.25;5077628;28;20062;-55
2021/12/26 08:23:16;;;;;;;28.15;11.90;;;;;;;0.65;100.00;97219.34;5082035;28;20398;-55
2021/12/26 08:25:41;;;;;;;27.27;12.40;;;;;;;0.55;100.00;97219.47;5080815;28;20028;-55
2021/12/26 08:28:06;;;;;;;29.33;11.57;;;;;;;0.45;100.00;97214.50;5078661;28;20499;-55
2021/12/26 08:30:34;;;;;;;28.35;12.68;;;;;;;0.66;100.00;97228.72;5081804;28;20037;-57
2021/12/26 08:33:05;;;;;;;28.65;11.95;;;;;;;0.76;100.00;97236.28;5082885;28;20033;-56
2021/12/26 08:35:30;;;;;;;32.20;11.90;;;;;;;0.85;100.00;97240.44;5076613;28;20172;-55
2021/12/26 08:37:55;;;;;;;27.25;11.00;;;;;;;0.85;100.00;97242.16;5084998;28;20082;-55
2021/12/26 08:40:21;;;;;;;23.33;11.00;;;;;;;0.90;100.00;97230.09;5077924;27;20020;-55
2021/12/26 08:42:47;;;;;;;25.15;10.90;;;;;;;1.05;100.00;97236.72;5083936;28;20123;-55
2021/12/26 08:45:13;;;;;;;26.60;11.73;;;;;;;1.13;100.00;97228.03;5079892;28;20061;-56
2021/12/26 08:47:39;;;;;;;29.55;12.50;;;;;;;0.71;100.00;97227.78;5076054;28;20031;-55
2021/12/26 08:50:06;;;;;;;29.05;12.10;;;;;;;0.74;100.00;97226.91;5080207;28;20059;-57
2021/12/26 08:52:31;;;;;;;31.45;14.15;;;;;;;0.71;100.00;97224.38;5081641;28;20041;-56
2021/12/26 08:54:56;;;;;;;30.23;13.23;;;;;;;0.81;100.00;97233.66;5066387;28;20098;-56
2021/12/26 08:57:22;;;;;;;32.50;13.77;;;;;;;0.86;100.00;97228.44;5073583;28;20139;-56
2021/12/26 08:59:47;;;;;;;26.30;12.50;;;;;;;0.77;100.00;97229.41;5077725;28;20028;-57
2021/12/26 09:02:13;;;;;;;32.15;12.20;;;;;;;0.98;100.00;97230.84;5085707;28;20032;-56
2021/12/26 09:04:40;;;;;;;28.45;12.35;;;;;;;1.08;100.00;97240.09;5080421;28;20708;-57
2021/12/26 09:07:06;;;;;;;27.83;12.35;;;;;;;1.18;100.00;97245.06;5079906;28;20042;-56
2021/12/26 09:09:32;;;;;;;26.48;12.00;;;;;;;1.10;100.00;97242.63;5072391;28;20065;-57
2021/12/26 09:11:58;;;;;;;25.25;11.65;;;;;;;1.04;100.00;97237.59;5073983;28;20197;-56
2021/12/26 09:14:25;;;;;;;33.33;13.32;;;;;;;0.98;100.00;97242.84;5082117;28;20105;-58
2021/12/26 09:16:51;;;;;;;28.65;12.68;;;;;;;1.06;100.00;97244.41;5079973;28;20035;-56
2021/12/26 09:19:16;;;;;;;36.10;15.68;;;;;;;1.04;100.00;97242.72;5079142;28;20055;-57
2021/12/26 09:21:42;;;;;;;28.75;12.57;;;;;;;1.36;100.00;97244.81;5076178;28;20036;-57
2021/12/26 09:24:07;;;;;;;31.60;14.23;;;;;;;1.14;100.00;97249.44;5077170;28;20050;-56
2021/12/26 09:26:32;;;;;;;28.23;12.68;;;;;;;1.01;100.00;97253.03;5078818;28;20042;-57
2021/12/26 09:28:58;;;;;;;26.90;11.48;;;;;;;1.06;100.00;97256.41;5077657;28;20045;-56
2021/12/26 09:31:24;;;;;;;30.75;14.10;;;;;;;1.25;100.00;97262.09;5080861;28;20032;-57
2021/12/26 09:33:49;;;;;;;27.20;12.60;;;;;;;1.23;100.00;97258.69;5080813;28;20024;-58
2021/12/26 09:36:15;;;;;;;26.20;12.18;;;;;;;1.23;100.00;97264.72;5079759;28;20032;-55
2021/12/26 09:38:40;;;;;;;27.98;13.57;;;;;;;1.26;100.00;97258.66;5077728;28;20480;-58
2021/12/26 09:41:06;;;;;;;31.23;13.77;;;;;;;1.55;100.00;97255.63;5080707;28;20040;-56
2021/12/26 09:43:31;;;;;;;29.50;13.00;;;;;;;1.41;100.00;97257.56;5080383;28;20785;-60
2021/12/26 09:45:57;;;;;;;28.02;12.10;;;;;;;1.36;100.00;97252.50;5083638;28;20044;-56
2021/12/26 09:48:22;;;;;;;35.45;16.38;;;;;;;1.28;100.00;97260.31;5084080;28;20038;-56
2021/12/26 09:50:47;;;;;;;26.45;12.48;;;;;;;1.04;100.00;97260.72;5080197;28;20035;-57
2021/12/26 09:53:14;;;;;;;33.78;14.32;;;;;;;1.25;100.00;97252.69;5078966;28;20119;-57
2021/12/26 09:55:39;;;;;;;29.83;12.85;;;;;;;1.20;100.00;97251.91;5077177;28;20032;-57
2021/12/26 09:58:04;;;;;;;27.27;12.98;;;;;;;1.28;100.00;97246.63;5080052;28;20195;-56
2021/12/26 10:00:39;;;;;;;25.67;12.02;;;;;;;1.27;100.00;97245.81;5079424;28;20191;-57
2021/12/26 10:03:13;;;;;;;29.13;13.88;;;;;;;1.20;100.00;97233.91;5066802;28;20710;-57
2021/12/26 10:06:13;;;;;;;28.33;13.05;;;;;;;1.27;100.00;97234.66;5080054;28;20047;-57
2021/12/26 10:09:00;;;;;;;29.20;12.68;;;;;;;1.17;100.00;97217.72;5081770;28;20094;-56
2021/12/26 10:11:32;;;;;;;30.48;13.30;;;;;;;1.38;100.00;97227.63;5078606;28;20510;-56
2021/12/26 10:14:04;;;;;;;29.08;13.02;;;;;;;1.50;100.00;97221.44;5085993;28;20552;-55
2021/12/26 10:16:31;;;;;;;29.33;12.70;;;;;;;1.41;100.00;97219.03;5088296;28;20119;-57
2021/12/26 10:18:58;;;;;;;29.40;13.00;;;;;;;1.88;100.00;97219.91;5080993;28;20981;-56
2021/12/26 10:21:43;;;;;;;25.33;12.85;;;;;;;1.40;100.00;97214.75;5084652;28;20131;-55
2021/12/26 10:24:26;;;;;;;28.45;13.25;;;;;;;1.87;100.00;97211.31;5083553;28;20032;-56
2021/12/26 10:26:56;;;;;;;27.65;12.88;;;;;;;2.02;100.00;97209.31;5078789;28;20082;-56
2021/12/26 10:29:34;;;;;;;23.75;11.20;;;;;;;1.87;100.00;97205.34;5086619;28;20028;-57
2021/12/26 10:32:25;;;;;;;26.02;12.40;;;;;;;1.63;100.00;97215.19;5081873;28;20181;-57
2021/12/26 10:34:57;;;;;;;32.47;11.63;;;;;;;1.50;100.00;97216.28;5080345;28;20065;-58
2021/12/26 10:37:28;;;;;;;23.90;11.68;;;;;;;1.82;100.00;97208.00;5076929;28;20123;-58
2021/12/26 10:40:00;;;;;;;27.02;12.35;;;;;;;1.80;100.00;97211.47;5069406;28;20521;-56
2021/12/26 10:42:28;;;;;;;;;;;;;;;1.84;100.00;97213.97;5077317;28;20560;-55
2021/12/26 10:45:06;;;;;;;25.50;12.07;;;;;;;1.73;100.00;97209.03;5078933;28;19912;-58
2021/12/26 10:47:34;;;;;;;24.95;11.48;;;;;;;1.89;100.00;97208.72;5083711;28;20044;-56
2021/12/26 10:50:11;;;;;;;25.98;11.98;;;;;;;2.02;100.00;97199.91;5076266;28;20039;-55
2021/12/26 10:53:00;;;;;;;23.70;10.85;;;;;;;1.57;100.00;97189.59;5081837;28;20048;-56
2021/12/26 10:55:29;;;;;;;27.15;13.50;;;;;;;1.88;100.00;97191.63;5084591;28;20033;-57
2021/12/26 10:57:56;;;;;;;26.65;12.27;;;;;;;1.81;100.00;97190.03;5079542;28;20657;-56
2021/12/26 11:00:31;;;;;;;27.50;12.40;;;;;;;1.66;100.00;97194.59;5077900;28;20059;-56
2021/12/26 11:03:06;;;;;;;24.02;11.60;;;;;;;1.79;100.00;97196.94;5082045;28;20023;-57
2021/12/26 11:05:35;;;;;;;26.40;12.15;;;;;;;1.72;100.00;97193.63;5082381;28;20040;-56
2021/12/26 11:08:04;;;;;;;24.45;12.57;;;;;;;1.64;100.00;97196.34;5083611;28;20115;-57
2021/12/26 11:10:48;;;;;;;26.00;11.32;;;;;;;1.67;100.00;97191.16;5081652;28;20059;-56
2021/12/26 11:13:25;;;;;;;28.45;13.73;;;;;;;1.81;100.00;97196.00;5080521;28;20035;-56
2021/12/26 11:15:56;;;;;;;24.42;11.40;;;;;;;1.87;100.00;97192.47;5079014;28;20032;-57
2021/12/26 11:18:22;;;;;;;25.33;12.50;;;;;;;1.83;100.00;97199.41;5082354;28;20074;-59